createdAt,value
2022-09-23T00:05:02.140Z,11.10
2022-09-23T00:10:27.930Z,10.00
2022-09-23T00:15:52.899Z,9.70
2022-09-23T00:27:06.634Z,13.00
2022-09-23T00:32:35.257Z,12.50
2022-09-23T00:38:23.532Z,10.20
2022-09-23T00:43:57.065Z,13.50
2022-09-23T00:49:40.002Z,10.00
2022-09-23T00:55:16.249Z,9.80
2022-09-23T01:00:57.895Z,11.00
2022-09-23T01:12:26.372Z,13.70
2022-09-23T01:18:19.220Z,11.60
2022-09-23T01:24:25.442Z,8.30
2022-09-23T01:30:08.439Z,7.60
2022-09-23T01:35:45.001Z,5.90
2022-09-23T01:41:50.169Z,9.50
2022-09-23T01:47:58.075Z,8.10
2022-09-23T01:59:41.201Z,7.40
2022-09-23T02:05:39.151Z,8.80
2022-09-23T02:16:53.404Z,11.30
2022-09-23T02:22:29.860Z,10.80
2022-09-23T02:28:46.466Z,10.30
2022-09-23T02:34:30.388Z,12.00
2022-09-23T02:40:17.339Z,13.90
2022-09-23T02:45:34.346Z,10.90
2022-09-23T02:50:48.302Z,13.90
2022-09-23T02:56:18.104Z,10.00
2022-09-23T03:01:58.594Z,9.60
2022-09-23T03:07:56.804Z,8.70
2022-09-23T03:20:00.130Z,7.20
2022-09-23T03:25:28.663Z,9.10
2022-09-23T03:30:44.012Z,11.30
2022-09-23T03:36:11.957Z,9.90
2022-09-23T03:41:45.884Z,12.00
2022-09-23T03:47:03.886Z,9.60
2022-09-23T03:52:33.640Z,7.70
2022-09-23T03:58:09.187Z,7.90
2022-09-23T04:03:43.667Z,11.30
2022-09-23T04:09:14.581Z,9.90
2022-09-23T04:14:45.157Z,11.10
2022-09-23T04:20:10.473Z,8.60
2022-09-23T04:25:41.261Z,8.20
2022-09-23T04:36:33.427Z,8.60
2022-09-23T04:42:01.151Z,8.60
2022-09-23T04:53:13.609Z,8.50
2022-09-23T04:58:29.980Z,7.50
2022-09-23T05:03:43.294Z,10.10
2022-09-23T05:08:57.296Z,8.90
2022-09-23T05:14:07.629Z,7.70
2022-09-23T05:19:21.581Z,7.80
2022-09-23T05:24:33.423Z,7.20
2022-09-23T05:29:59.487Z,8.70
2022-09-23T05:35:13.230Z,10.00
2022-09-23T05:40:33.625Z,8.60
2022-09-23T05:52:09.301Z,5.10
2022-09-23T05:57:23.908Z,7.40
2022-09-23T06:02:48.721Z,9.60
2022-09-23T06:08:08.742Z,6.70
2022-09-23T06:13:32.264Z,7.40
2022-09-23T06:19:05.102Z,8.40
2022-09-23T06:24:33.782Z,7.60
2022-09-23T06:29:55.824Z,16.00
2022-09-23T06:35:26.597Z,7.30
2022-09-23T06:40:41.562Z,9.40
2022-09-23T06:46:16.361Z,11.90
2022-09-23T06:51:43.238Z,11.70
2022-09-23T06:57:04.482Z,7.30
2022-09-23T07:02:25.800Z,8.10
2022-09-23T07:07:44.627Z,7.50
2022-09-23T07:13:06.977Z,9.70
2022-09-23T07:18:36.181Z,10.50
2022-09-23T07:24:07.652Z,9.90
2022-09-23T07:29:41.845Z,13.90
2022-09-23T07:35:23.549Z,7.30
2022-09-23T07:41:10.405Z,11.50
2022-09-23T07:46:56.146Z,11.80
2022-09-23T07:52:31.845Z,11.40
2022-09-23T07:58:00.367Z,9.10
2022-09-23T08:03:26.330Z,9.30
2022-09-23T08:08:57.417Z,9.00
2022-09-23T08:14:28.327Z,8.10
2022-09-23T08:20:05.350Z,8.60
2022-09-23T08:25:46.853Z,7.00
2022-09-23T08:42:43.879Z,8.20
2022-09-23T08:48:24.734Z,4.30
2022-09-23T08:59:19.646Z,5.10
2022-09-23T09:05:05.142Z,3.70
2022-09-23T09:10:47.617Z,3.40
2022-09-23T09:16:07.099Z,1.90
2022-09-23T09:21:14.135Z,1.20
2022-09-23T09:26:32.856Z,1.00
2022-09-23T09:31:46.141Z,1.80
2022-09-23T09:36:53.995Z,1.60
2022-09-23T09:41:59.761Z,9.70
2022-09-23T09:47:20.706Z,2.90
2022-09-23T09:52:29.811Z,2.00
2022-09-23T09:57:39.368Z,3.00
2022-09-23T10:02:41.428Z,17.50
2022-09-23T10:07:44.222Z,2.80
2022-09-23T10:12:48.773Z,1.20
2022-09-23T10:17:54.443Z,1.50
2022-09-23T10:22:56.555Z,1.90
2022-09-23T10:27:58.614Z,1.20
2022-09-23T10:33:00.930Z,0.90
2022-09-23T10:38:03.063Z,1.30
2022-09-23T10:43:43.386Z,2.10
2022-09-23T10:48:54.420Z,1.00
2022-09-23T10:54:07.541Z,3.00
2022-09-23T10:59:47.312Z,3.40
2022-09-23T11:05:26.193Z,1.10
2022-09-23T11:10:48.367Z,3.00
2022-09-23T11:16:38.655Z,2.70
2022-09-23T11:22:10.436Z,1.20
2022-09-23T11:27:38.958Z,1.40
2022-09-23T11:32:52.038Z,1.60
2022-09-23T11:38:03.185Z,3.30
2022-09-23T11:43:23.019Z,2.40
2022-09-23T11:48:36.383Z,1.80
2022-09-23T11:53:44.025Z,2.10
2022-09-23T11:59:01.943Z,1.50
2022-09-23T12:04:19.966Z,7.20
2022-09-23T12:09:57.392Z,4.50
2022-09-23T12:15:20.038Z,1.60
2022-09-23T12:20:43.428Z,1.40
2022-09-23T12:25:47.748Z,1.60
2022-09-23T12:30:54.557Z,3.90
2022-09-23T12:36:09.970Z,1.10
2022-09-23T12:41:35.084Z,1.20
2022-09-23T12:46:37.895Z,1.00
2022-09-23T12:52:12.373Z,1.40
2022-09-23T12:57:34.621Z,0.80
2022-09-23T13:03:09.197Z,1.20
2022-09-23T13:08:20.118Z,2.20
2022-09-23T13:13:31.861Z,2.70
2022-09-23T13:18:54.660Z,0.80
2022-09-23T13:24:19.170Z,1.00
2022-09-23T13:29:37.619Z,1.10
2022-09-23T13:34:44.136Z,1.20
2022-09-23T13:44:49.279Z,2.70
2022-09-23T13:49:52.903Z,2.50
2022-09-23T13:54:55.776Z,3.00
2022-09-23T14:00:25.003Z,2.00
2022-09-23T14:05:32.753Z,1.40
2022-09-23T14:10:35.219Z,1.90
2022-09-23T14:15:41.288Z,1.70
2022-09-23T14:20:50.770Z,1.90
2022-09-23T14:25:54.682Z,8.00
2022-09-23T14:30:58.254Z,1.20
2022-09-23T14:36:30.303Z,1.90
2022-09-23T14:41:42.387Z,3.20
2022-09-23T14:46:56.616Z,2.10
2022-09-23T14:52:06.749Z,1.60
2022-09-23T14:57:25.754Z,2.40
2022-09-23T15:02:32.785Z,1.60
2022-09-23T15:12:45.448Z,2.00
2022-09-23T15:17:49.105Z,1.60
2022-09-23T15:22:59.011Z,2.20
2022-09-23T15:28:19.053Z,2.10
2022-09-23T15:33:27.669Z,1.60
2022-09-23T15:38:31.581Z,4.10
2022-09-23T15:43:34.004Z,1.30
2022-09-23T15:48:53.144Z,2.60
2022-09-23T15:54:00.398Z,2.70
2022-09-23T15:59:03.332Z,2.70
2022-09-23T16:04:05.830Z,2.50
2022-09-23T16:09:07.831Z,6.70
2022-09-23T16:14:14.976Z,3.90
2022-09-23T16:24:22.527Z,9.30
2022-09-23T16:29:27.396Z,2.30
2022-09-23T16:34:29.880Z,2.00
2022-09-23T16:39:31.891Z,2.30
2022-09-23T16:44:34.172Z,4.20
2022-09-23T16:49:36.166Z,7.90
2022-09-23T16:54:38.660Z,2.80
2022-09-23T16:59:59.668Z,2.00
2022-09-23T17:05:03.458Z,2.10
2022-09-23T17:10:07.081Z,4.40
2022-09-23T17:15:12.145Z,2.00
2022-09-23T17:20:15.116Z,5.40
2022-09-23T17:25:18.707Z,2.10
2022-09-23T17:30:20.976Z,2.70
2022-09-23T17:35:23.342Z,4.20
2022-09-23T17:40:26.591Z,2.80
2022-09-23T17:45:30.332Z,4.40
2022-09-23T17:50:33.522Z,5.60
2022-09-23T17:55:36.080Z,3.40
2022-09-23T18:00:39.553Z,3.90
2022-09-23T18:05:47.054Z,4.40
2022-09-23T18:10:50.420Z,3.60
2022-09-23T18:15:52.511Z,4.30
2022-09-23T18:21:06.056Z,7.20
2022-09-23T18:26:16.365Z,6.80
2022-09-23T18:31:18.699Z,5.00
2022-09-23T18:36:22.656Z,7.00
2022-09-23T18:41:26.589Z,7.80
2022-09-23T18:46:30.359Z,8.20
2022-09-23T18:51:38.099Z,7.70
2022-09-23T18:56:42.347Z,11.80
2022-09-23T19:01:45.652Z,10.80
2022-09-23T19:06:49.904Z,16.70
2022-09-23T19:11:53.138Z,15.40
2022-09-23T19:16:55.807Z,16.90
2022-09-23T19:21:57.954Z,23.50
2022-09-23T19:27:04.929Z,18.80
2022-09-23T19:32:07.396Z,23.10
2022-09-23T19:37:09.566Z,17.90
2022-09-23T19:42:15.308Z,20.10
2022-09-23T19:47:18.004Z,25.60
2022-09-23T19:52:20.408Z,30.50
2022-09-23T19:57:23.128Z,19.00
2022-09-23T20:02:25.264Z,46.40
2022-09-23T20:07:28.035Z,32.70
2022-09-23T20:12:32.994Z,37.10
2022-09-23T20:17:34.991Z,35.60
2022-09-23T20:22:37.515Z,38.20
2022-09-23T20:27:40.774Z,48.10
2022-09-23T20:32:44.889Z,41.80
2022-09-23T20:37:47.615Z,34.80
2022-09-23T20:42:50.615Z,44.50
2022-09-23T20:47:52.954Z,42.00
2022-09-23T20:52:56.825Z,48.60
2022-09-23T20:58:01.100Z,40.70
2022-09-23T21:03:03.337Z,41.40
2022-09-23T21:08:06.182Z,34.00
2022-09-23T21:13:08.776Z,28.70
2022-09-23T21:18:15.580Z,42.50
2022-09-23T21:23:23.642Z,43.40
2022-09-23T21:28:31.293Z,40.60
2022-09-23T21:33:36.722Z,37.10
2022-09-23T21:38:39.372Z,35.80
2022-09-23T21:43:41.776Z,36.90
2022-09-23T21:48:43.852Z,37.80
2022-09-23T21:53:46.796Z,41.30
2022-09-23T21:58:49.651Z,33.80
2022-09-23T22:03:57.610Z,44.30
2022-09-23T22:09:02.142Z,45.90
2022-09-23T22:14:07.435Z,31.40
2022-09-23T22:19:12.487Z,32.40
2022-09-23T22:24:15.424Z,38.10
2022-09-23T22:29:36.045Z,29.30
2022-09-23T22:34:49.414Z,38.20
2022-09-23T22:39:54.902Z,38.40
2022-09-23T22:44:57.207Z,28.40
2022-09-23T22:49:59.149Z,31.60
2022-09-23T22:55:01.331Z,24.00
2022-09-23T23:00:08.054Z,32.90
2022-09-23T23:05:11.414Z,41.30
2022-09-23T23:10:23.750Z,27.00
2022-09-23T23:15:26.427Z,25.70
2022-09-23T23:20:30.014Z,26.90
2022-09-23T23:25:32.842Z,31.30
2022-09-23T23:30:35.749Z,32.60
2022-09-23T23:35:38.653Z,34.30
2022-09-23T23:40:41.439Z,35.80
2022-09-23T23:45:43.925Z,40.80
2022-09-23T23:50:58.832Z,42.50
2022-09-23T23:56:03.916Z,31.80
